sensor_id;sensor_type;location;lat;lon;timestamp;P1;durP1;ratioP1;P2;durP2;ratioP2
8871;SDS011;4472;52.092;9.820;2023-03-01T00:00:43;12.93;;;7.60;;
8871;SDS011;4472;52.092;9.820;2023-03-01T00:03:32;13.47;;;8.40;;
8871;SDS011;4472;52.092;9.820;2023-03-01T00:06:19;13.23;;;8.53;;
8871;SDS011;4472;52.092;9.820;2023-03-01T00:09:07;20.17;;;11.80;;
8871;SDS011;4472;52.092;9.820;2023-03-01T00:11:56;21.17;;;9.60;;
8871;SDS011;4472;52.092;9.820;2023-03-01T00:14:43;16.53;;;10.10;;
8871;SDS011;4472;52.092;9.820;2023-03-01T00:17:30;18.10;;;11.20;;
8871;SDS011;4472;52.092;9.820;2023-03-01T00:20:18;15.93;;;10.40;;
8871;SDS011;4472;52.092;9.820;2023-03-01T00:23:06;24.77;;;16.23;;
8871;SDS011;4472;52.092;9.820;2023-03-01T00:25:53;22.07;;;15.30;;
8871;SDS011;4472;52.092;9.820;2023-03-01T00:28:42;19.20;;;14.20;;
8871;SDS011;4472;52.092;9.820;2023-03-01T00:31:29;19.30;;;13.73;;
8871;SDS011;4472;52.092;9.820;2023-03-01T00:34:17;25.40;;;16.13;;
8871;SDS011;4472;52.092;9.820;2023-03-01T00:37:04;21.83;;;15.13;;
8871;SDS011;4472;52.092;9.820;2023-03-01T00:39:52;25.90;;;16.30;;
8871;SDS011;4472;52.092;9.820;2023-03-01T00:42:39;18.83;;;10.77;;
8871;SDS011;4472;52.092;9.820;2023-03-01T00:45:28;17.57;;;10.47;;
8871;SDS011;4472;52.092;9.820;2023-03-01T00:48:16;20.40;;;12.07;;
8871;SDS011;4472;52.092;9.820;2023-03-01T00:51:04;17.90;;;11.63;;
8871;SDS011;4472;52.092;9.820;2023-03-01T00:53:52;15.80;;;10.87;;
8871;SDS011;4472;52.092;9.820;2023-03-01T00:56:39;18.33;;;10.90;;
8871;SDS011;4472;52.092;9.820;2023-03-01T00:59:27;11.80;;;8.80;;
8871;SDS011;4472;52.092;9.820;2023-03-01T01:02:16;16.27;;;8.90;;
8871;SDS011;4472;52.092;9.820;2023-03-01T01:05:04;12.00;;;7.90;;
8871;SDS011;4472;52.092;9.820;2023-03-01T01:07:51;16.60;;;8.43;;
8871;SDS011;4472;52.092;9.820;2023-03-01T01:10:39;15.70;;;9.40;;
8871;SDS011;4472;52.092;9.820;2023-03-01T01:13:26;17.10;;;9.60;;
8871;SDS011;4472;52.092;9.820;2023-03-01T01:16:14;19.53;;;9.80;;
8871;SDS011;4472;52.092;9.820;2023-03-01T01:19:03;12.10;;;8.10;;
8871;SDS011;4472;52.092;9.820;2023-03-01T01:21:51;11.67;;;7.27;;
8871;SDS011;4472;52.092;9.820;2023-03-01T01:24:38;17.07;;;8.63;;
8871;SDS011;4472;52.092;9.820;2023-03-01T01:27:25;17.70;;;9.37;;
8871;SDS011;4472;52.092;9.820;2023-03-01T01:30:13;16.80;;;8.97;;
8871;SDS011;4472;52.092;9.820;2023-03-01T01:33:00;14.50;;;8.23;;
8871;SDS011;4472;52.092;9.820;2023-03-01T01:35:49;13.40;;;7.40;;
8871;SDS011;4472;52.092;9.820;2023-03-01T01:38:37;11.80;;;7.03;;
8871;SDS011;4472;52.092;9.820;2023-03-01T01:41:28;9.53;;;6.30;;
8871;SDS011;4472;52.092;9.820;2023-03-01T01:44:16;11.97;;;6.40;;
8871;SDS011;4472;52.092;9.820;2023-03-01T01:47:05;9.40;;;5.87;;
8871;SDS011;4472;52.092;9.820;2023-03-01T01:49:54;9.47;;;5.70;;
8871;SDS011;4472;52.092;9.820;2023-03-01T01:52:43;7.57;;;5.60;;
8871;SDS011;4472;52.092;9.820;2023-03-01T01:55:31;9.57;;;5.90;;
8871;SDS011;4472;52.092;9.820;2023-03-01T01:58:19;9.53;;;6.30;;
8871;SDS011;4472;52.092;9.820;2023-03-01T02:01:08;11.47;;;6.90;;
8871;SDS011;4472;52.092;9.820;2023-03-01T02:03:55;10.77;;;6.90;;
8871;SDS011;4472;52.092;9.820;2023-03-01T02:06:44;11.33;;;6.50;;
8871;SDS011;4472;52.092;9.820;2023-03-01T02:09:37;10.60;;;6.17;;
8871;SDS011;4472;52.092;9.820;2023-03-01T02:12:25;13.17;;;7.77;;
8871;SDS011;4472;52.092;9.820;2023-03-01T02:15:12;11.10;;;6.83;;
8871;SDS011;4472;52.092;9.820;2023-03-01T02:18:00;8.17;;;5.63;;
8871;SDS011;4472;52.092;9.820;2023-03-01T02:20:51;9.50;;;5.73;;
8871;SDS011;4472;52.092;9.820;2023-03-01T02:23:43;10.30;;;5.90;;
8871;SDS011;4472;52.092;9.820;2023-03-01T02:26:33;11.90;;;5.87;;
8871;SDS011;4472;52.092;9.820;2023-03-01T02:29:24;9.53;;;5.93;;
8871;SDS011;4472;52.092;9.820;2023-03-01T02:32:13;8.67;;;5.90;;
8871;SDS011;4472;52.092;9.820;2023-03-01T02:35:02;9.40;;;6.10;;
8871;SDS011;4472;52.092;9.820;2023-03-01T02:37:51;10.83;;;6.27;;
8871;SDS011;4472;52.092;9.820;2023-03-01T02:40:42;11.27;;;7.33;;
8871;SDS011;4472;52.092;9.820;2023-03-01T02:43:31;12.37;;;6.70;;
8871;SDS011;4472;52.092;9.820;2023-03-01T02:46:22;13.60;;;6.70;;
8871;SDS011;4472;52.092;9.820;2023-03-01T02:49:22;10.83;;;6.63;;
8871;SDS011;4472;52.092;9.820;2023-03-01T02:52:22;11.17;;;6.57;;
8871;SDS011;4472;52.092;9.820;2023-03-01T02:55:17;10.90;;;6.27;;
8871;SDS011;4472;52.092;9.820;2023-03-01T02:58:04;10.53;;;6.70;;
8871;SDS011;4472;52.092;9.820;2023-03-01T03:00:52;14.73;;;7.07;;
8871;SDS011;4472;52.092;9.820;2023-03-01T03:03:40;9.30;;;6.67;;
8871;SDS011;4472;52.092;9.820;2023-03-01T03:06:28;8.37;;;5.70;;
8871;SDS011;4472;52.092;9.820;2023-03-01T03:09:15;11.40;;;5.73;;
8871;SDS011;4472;52.092;9.820;2023-03-01T03:12:04;9.53;;;5.60;;
8871;SDS011;4472;52.092;9.820;2023-03-01T03:14:51;9.43;;;6.13;;
8871;SDS011;4472;52.092;9.820;2023-03-01T03:17:39;11.43;;;6.33;;
8871;SDS011;4472;52.092;9.820;2023-03-01T03:20:28;9.77;;;6.20;;
8871;SDS011;4472;52.092;9.820;2023-03-01T03:23:17;11.70;;;6.20;;
8871;SDS011;4472;52.092;9.820;2023-03-01T03:26:04;10.73;;;5.90;;
8871;SDS011;4472;52.092;9.820;2023-03-01T03:28:52;8.43;;;5.90;;
8871;SDS011;4472;52.092;9.820;2023-03-01T03:31:39;8.80;;;5.70;;
8871;SDS011;4472;52.092;9.820;2023-03-01T03:34:26;10.07;;;5.73;;
8871;SDS011;4472;52.092;9.820;2023-03-01T03:37:15;7.93;;;5.10;;
8871;SDS011;4472;52.092;9.820;2023-03-01T03:40:16;7.80;;;5.37;;
8871;SDS011;4472;52.092;9.820;2023-03-01T03:43:03;8.47;;;5.50;;
8871;SDS011;4472;52.092;9.820;2023-03-01T03:45:52;8.63;;;5.43;;
8871;SDS011;4472;52.092;9.820;2023-03-01T03:48:43;6.70;;;5.53;;
8871;SDS011;4472;52.092;9.820;2023-03-01T03:51:31;9.37;;;5.20;;
8871;SDS011;4472;52.092;9.820;2023-03-01T03:54:19;11.30;;;6.23;;
8871;SDS011;4472;52.092;9.820;2023-03-01T03:57:06;7.80;;;5.40;;
8871;SDS011;4472;52.092;9.820;2023-03-01T03:59:53;11.03;;;6.07;;
8871;SDS011;4472;52.092;9.820;2023-03-01T04:02:41;8.83;;;5.70;;
8871;SDS011;4472;52.092;9.820;2023-03-01T04:05:29;8.83;;;5.97;;
8871;SDS011;4472;52.092;9.820;2023-03-01T04:08:16;8.77;;;5.87;;
8871;SDS011;4472;52.092;9.820;2023-03-01T04:11:06;7.87;;;5.67;;
8871;SDS011;4472;52.092;9.820;2023-03-01T04:14:07;7.27;;;5.40;;
8871;SDS011;4472;52.092;9.820;2023-03-01T04:16:56;9.80;;;6.37;;
8871;SDS011;4472;52.092;9.820;2023-03-01T04:19:43;11.83;;;6.90;;
8871;SDS011;4472;52.092;9.820;2023-03-01T04:22:34;10.60;;;6.77;;
8871;SDS011;4472;52.092;9.820;2023-03-01T04:25:21;10.90;;;6.10;;
8871;SDS011;4472;52.092;9.820;2023-03-01T04:28:09;12.10;;;7.53;;
8871;SDS011;4472;52.092;9.820;2023-03-01T04:30:57;11.57;;;7.63;;
8871;SDS011;4472;52.092;9.820;2023-03-01T04:33:50;12.70;;;8.33;;
8871;SDS011;4472;52.092;9.820;2023-03-01T04:36:38;11.37;;;8.03;;
8871;SDS011;4472;52.092;9.820;2023-03-01T04:39:26;13.90;;;7.97;;
8871;SDS011;4472;52.092;9.820;2023-03-01T04:42:13;14.50;;;8.00;;
8871;SDS011;4472;52.092;9.820;2023-03-01T04:45:01;13.73;;;8.40;;
8871;SDS011;4472;52.092;9.820;2023-03-01T04:47:49;12.07;;;7.47;;
8871;SDS011;4472;52.092;9.820;2023-03-01T04:50:37;11.30;;;7.07;;
8871;SDS011;4472;52.092;9.820;2023-03-01T04:53:24;11.83;;;7.73;;
8871;SDS011;4472;52.092;9.820;2023-03-01T04:56:12;10.73;;;6.90;;
8871;SDS011;4472;52.092;9.820;2023-03-01T04:58:59;10.67;;;6.60;;
8871;SDS011;4472;52.092;9.820;2023-03-01T05:01:53;12.90;;;6.87;;
8871;SDS011;4472;52.092;9.820;2023-03-01T05:04:41;11.27;;;7.37;;
8871;SDS011;4472;52.092;9.820;2023-03-01T05:07:29;12.93;;;8.53;;
8871;SDS011;4472;52.092;9.820;2023-03-01T05:10:16;13.63;;;8.47;;
8871;SDS011;4472;52.092;9.820;2023-03-01T05:13:03;14.83;;;8.90;;
8871;SDS011;4472;52.092;9.820;2023-03-01T05:15:53;13.87;;;8.33;;
8871;SDS011;4472;52.092;9.820;2023-03-01T05:18:43;13.00;;;8.67;;
8871;SDS011;4472;52.092;9.820;2023-03-01T05:21:31;14.50;;;8.33;;
8871;SDS011;4472;52.092;9.820;2023-03-01T05:24:19;12.30;;;7.50;;
8871;SDS011;4472;52.092;9.820;2023-03-01T05:27:06;11.07;;;7.43;;
8871;SDS011;4472;52.092;9.820;2023-03-01T05:29:53;13.10;;;8.17;;
8871;SDS011;4472;52.092;9.820;2023-03-01T05:32:41;9.93;;;6.63;;
8871;SDS011;4472;52.092;9.820;2023-03-01T05:35:32;10.57;;;7.07;;
8871;SDS011;4472;52.092;9.820;2023-03-01T05:38:20;12.27;;;6.93;;
8871;SDS011;4472;52.092;9.820;2023-03-01T05:41:13;16.60;;;9.27;;
8871;SDS011;4472;52.092;9.820;2023-03-01T05:44:00;14.43;;;8.30;;
8871;SDS011;4472;52.092;9.820;2023-03-01T05:46:50;20.70;;;8.17;;
8871;SDS011;4472;52.092;9.820;2023-03-01T05:49:37;15.20;;;8.27;;
8871;SDS011;4472;52.092;9.820;2023-03-01T05:52:26;14.13;;;7.80;;
8871;SDS011;4472;52.092;9.820;2023-03-01T05:55:13;12.73;;;7.47;;
8871;SDS011;4472;52.092;9.820;2023-03-01T05:58:01;19.20;;;9.53;;
8871;SDS011;4472;52.092;9.820;2023-03-01T06:00:51;17.93;;;9.37;;
8871;SDS011;4472;52.092;9.820;2023-03-01T06:03:38;14.73;;;8.53;;
8871;SDS011;4472;52.092;9.820;2023-03-01T06:06:25;46.43;;;17.67;;
8871;SDS011;4472;52.092;9.820;2023-03-01T06:09:14;21.73;;;10.67;;
8871;SDS011;4472;52.092;9.820;2023-03-01T06:12:01;20.73;;;8.27;;
8871;SDS011;4472;52.092;9.820;2023-03-01T06:14:48;26.03;;;12.20;;
8871;SDS011;4472;52.092;9.820;2023-03-01T06:17:36;35.83;;;15.30;;
8871;SDS011;4472;52.092;9.820;2023-03-01T06:20:25;37.97;;;16.93;;
8871;SDS011;4472;52.092;9.820;2023-03-01T06:23:14;44.63;;;20.17;;
8871;SDS011;4472;52.092;9.820;2023-03-01T06:26:04;43.50;;;19.40;;
8871;SDS011;4472;52.092;9.820;2023-03-01T06:28:52;35.93;;;17.73;;
8871;SDS011;4472;52.092;9.820;2023-03-01T06:31:39;37.63;;;19.07;;
8871;SDS011;4472;52.092;9.820;2023-03-01T06:34:26;33.10;;;18.17;;
8871;SDS011;4472;52.092;9.820;2023-03-01T06:37:13;27.73;;;15.63;;
8871;SDS011;4472;52.092;9.820;2023-03-01T06:40:00;29.07;;;16.57;;
8871;SDS011;4472;52.092;9.820;2023-03-01T06:42:53;23.30;;;15.27;;
8871;SDS011;4472;52.092;9.820;2023-03-01T06:45:41;23.63;;;13.90;;
8871;SDS011;4472;52.092;9.820;2023-03-01T06:48:28;22.07;;;13.47;;
8871;SDS011;4472;52.092;9.820;2023-03-01T06:51:15;51.00;;;24.50;;
8871;SDS011;4472;52.092;9.820;2023-03-01T06:54:02;18.77;;;11.97;;
8871;SDS011;4472;52.092;9.820;2023-03-01T06:56:50;114.13;;;40.40;;
8871;SDS011;4472;52.092;9.820;2023-03-01T06:59:38;26.07;;;17.10;;
8871;SDS011;4472;52.092;9.820;2023-03-01T07:02:26;28.80;;;17.57;;
8871;SDS011;4472;52.092;9.820;2023-03-01T07:05:13;32.87;;;17.47;;
8871;SDS011;4472;52.092;9.820;2023-03-01T07:08:00;21.37;;;12.93;;
8871;SDS011;4472;52.092;9.820;2023-03-01T07:10:47;28.37;;;15.37;;
8871;SDS011;4472;52.092;9.820;2023-03-01T07:13:34;103.40;;;38.07;;
8871;SDS011;4472;52.092;9.820;2023-03-01T07:16:23;56.37;;;24.87;;
8871;SDS011;4472;52.092;9.820;2023-03-01T07:19:10;45.40;;;21.97;;
8871;SDS011;4472;52.092;9.820;2023-03-01T07:21:57;38.17;;;19.30;;
8871;SDS011;4472;52.092;9.820;2023-03-01T07:24:44;31.07;;;16.40;;
8871;SDS011;4472;52.092;9.820;2023-03-01T07:27:31;26.53;;;14.23;;
8871;SDS011;4472;52.092;9.820;2023-03-01T07:30:19;23.27;;;14.33;;
8871;SDS011;4472;52.092;9.820;2023-03-01T07:33:08;22.27;;;13.87;;
8871;SDS011;4472;52.092;9.820;2023-03-01T07:35:55;20.67;;;11.67;;
8871;SDS011;4472;52.092;9.820;2023-03-01T07:38:44;17.83;;;11.47;;
8871;SDS011;4472;52.092;9.820;2023-03-01T07:41:31;14.47;;;9.90;;
8871;SDS011;4472;52.092;9.820;2023-03-01T07:44:18;17.23;;;9.13;;
8871;SDS011;4472;52.092;9.820;2023-03-01T07:47:05;14.00;;;9.27;;
8871;SDS011;4472;52.092;9.820;2023-03-01T07:49:54;17.40;;;10.40;;
8871;SDS011;4472;52.092;9.820;2023-03-01T07:52:41;17.73;;;10.47;;
8871;SDS011;4472;52.092;9.820;2023-03-01T07:55:29;17.60;;;10.23;;
8871;SDS011;4472;52.092;9.820;2023-03-01T07:58:16;17.93;;;10.23;;
8871;SDS011;4472;52.092;9.820;2023-03-01T08:01:03;18.60;;;10.53;;
8871;SDS011;4472;52.092;9.820;2023-03-01T08:03:52;17.63;;;11.67;;
8871;SDS011;4472;52.092;9.820;2023-03-01T08:06:40;27.60;;;16.60;;
8871;SDS011;4472;52.092;9.820;2023-03-01T08:09:27;27.67;;;15.40;;
8871;SDS011;4472;52.092;9.820;2023-03-01T08:12:14;20.50;;;13.13;;
8871;SDS011;4472;52.092;9.820;2023-03-01T08:15:02;20.53;;;13.10;;
8871;SDS011;4472;52.092;9.820;2023-03-01T08:17:49;23.13;;;13.10;;
8871;SDS011;4472;52.092;9.820;2023-03-01T08:20:36;16.80;;;11.30;;
8871;SDS011;4472;52.092;9.820;2023-03-01T08:23:25;21.50;;;12.97;;
8871;SDS011;4472;52.092;9.820;2023-03-01T08:26:13;17.73;;;12.47;;
8871;SDS011;4472;52.092;9.820;2023-03-01T08:29:01;19.00;;;11.93;;
8871;SDS011;4472;52.092;9.820;2023-03-01T08:31:48;21.27;;;11.83;;
8871;SDS011;4472;52.092;9.820;2023-03-01T08:34:36;17.37;;;11.40;;
8871;SDS011;4472;52.092;9.820;2023-03-01T08:37:23;16.63;;;10.53;;
8871;SDS011;4472;52.092;9.820;2023-03-01T08:40:12;18.63;;;11.17;;
8871;SDS011;4472;52.092;9.820;2023-03-01T08:42:59;16.47;;;11.00;;
8871;SDS011;4472;52.092;9.820;2023-03-01T08:45:48;15.30;;;10.50;;
8871;SDS011;4472;52.092;9.820;2023-03-01T08:48:35;17.20;;;11.93;;
8871;SDS011;4472;52.092;9.820;2023-03-01T08:51:22;17.83;;;12.57;;
8871;SDS011;4472;52.092;9.820;2023-03-01T08:54:11;17.87;;;11.53;;
8871;SDS011;4472;52.092;9.820;2023-03-01T08:57:02;19.60;;;11.70;;
8871;SDS011;4472;52.092;9.820;2023-03-01T08:59:49;18.33;;;12.40;;
8871;SDS011;4472;52.092;9.820;2023-03-01T09:02:37;15.47;;;10.97;;
8871;SDS011;4472;52.092;9.820;2023-03-01T09:05:24;15.70;;;11.47;;
8871;SDS011;4472;52.092;9.820;2023-03-01T09:08:11;17.30;;;11.77;;
8871;SDS011;4472;52.092;9.820;2023-03-01T09:10:58;18.57;;;11.03;;
8871;SDS011;4472;52.092;9.820;2023-03-01T09:13:49;13.07;;;10.00;;
8871;SDS011;4472;52.092;9.820;2023-03-01T09:16:36;15.83;;;10.57;;
8871;SDS011;4472;52.092;9.820;2023-03-01T09:19:23;14.80;;;10.63;;
8871;SDS011;4472;52.092;9.820;2023-03-01T09:22:11;15.57;;;11.60;;
8871;SDS011;4472;52.092;9.820;2023-03-01T09:24:58;15.53;;;11.40;;
8871;SDS011;4472;52.092;9.820;2023-03-01T09:27:45;17.00;;;12.13;;
8871;SDS011;4472;52.092;9.820;2023-03-01T09:30:33;20.73;;;12.73;;
8871;SDS011;4472;52.092;9.820;2023-03-01T09:33:21;19.90;;;13.03;;
8871;SDS011;4472;52.092;9.820;2023-03-01T09:36:10;19.87;;;13.43;;
8871;SDS011;4472;52.092;9.820;2023-03-01T09:38:59;20.87;;;14.17;;
8871;SDS011;4472;52.092;9.820;2023-03-01T09:41:48;18.40;;;14.33;;
8871;SDS011;4472;52.092;9.820;2023-03-01T09:44:42;18.53;;;13.10;;
8871;SDS011;4472;52.092;9.820;2023-03-01T09:47:36;16.67;;;12.53;;
8871;SDS011;4472;52.092;9.820;2023-03-01T09:50:23;17.40;;;12.37;;
8871;SDS011;4472;52.092;9.820;2023-03-01T09:53:15;16.60;;;12.00;;
8871;SDS011;4472;52.092;9.820;2023-03-01T09:56:05;15.20;;;10.90;;
8871;SDS011;4472;52.092;9.820;2023-03-01T09:58:59;12.33;;;7.47;;
8871;SDS011;4472;52.092;9.820;2023-03-01T10:01:57;10.50;;;6.10;;
8871;SDS011;4472;52.092;9.820;2023-03-01T10:04:52;9.70;;;6.33;;
8871;SDS011;4472;52.092;9.820;2023-03-01T10:07:44;10.93;;;7.10;;
8871;SDS011;4472;52.092;9.820;2023-03-01T10:10:43;10.37;;;6.53;;
8871;SDS011;4472;52.092;9.820;2023-03-01T10:13:45;9.67;;;6.57;;
8871;SDS011;4472;52.092;9.820;2023-03-01T10:16:40;8.77;;;6.10;;
8871;SDS011;4472;52.092;9.820;2023-03-01T10:19:33;10.53;;;6.50;;
8871;SDS011;4472;52.092;9.820;2023-03-01T10:22:27;9.07;;;5.77;;
8871;SDS011;4472;52.092;9.820;2023-03-01T10:25:17;7.47;;;5.87;;
8871;SDS011;4472;52.092;9.820;2023-03-01T10:28:15;9.30;;;7.23;;
8871;SDS011;4472;52.092;9.820;2023-03-01T10:31:04;8.20;;;6.50;;
8871;SDS011;4472;52.092;9.820;2023-03-01T10:33:58;10.63;;;7.23;;
8871;SDS011;4472;52.092;9.820;2023-03-01T10:36:47;15.97;;;8.50;;
8871;SDS011;4472;52.092;9.820;2023-03-01T10:39:37;9.10;;;7.03;;
8871;SDS011;4472;52.092;9.820;2023-03-01T10:42:46;10.43;;;7.20;;
8871;SDS011;4472;52.092;9.820;2023-03-01T10:45:35;11.63;;;7.47;;
8871;SDS011;4472;52.092;9.820;2023-03-01T10:48:24;9.93;;;6.90;;
8871;SDS011;4472;52.092;9.820;2023-03-01T10:51:15;11.40;;;7.60;;
8871;SDS011;4472;52.092;9.820;2023-03-01T10:54:05;12.37;;;8.03;;
8871;SDS011;4472;52.092;9.820;2023-03-01T10:57:04;11.27;;;7.77;;
8871;SDS011;4472;52.092;9.820;2023-03-01T11:00:00;11.40;;;8.70;;
8871;SDS011;4472;52.092;9.820;2023-03-01T11:02:50;10.47;;;7.50;;
8871;SDS011;4472;52.092;9.820;2023-03-01T11:05:53;12.00;;;7.83;;
8871;SDS011;4472;52.092;9.820;2023-03-01T11:08:52;13.90;;;8.20;;
8871;SDS011;4472;52.092;9.820;2023-03-01T11:11:39;11.63;;;7.50;;
8871;SDS011;4472;52.092;9.820;2023-03-01T11:14:29;13.27;;;7.57;;
8871;SDS011;4472;52.092;9.820;2023-03-01T11:17:23;9.27;;;7.30;;
8871;SDS011;4472;52.092;9.820;2023-03-01T11:20:16;9.63;;;7.30;;
8871;SDS011;4472;52.092;9.820;2023-03-01T11:23:10;10.50;;;7.23;;
8871;SDS011;4472;52.092;9.820;2023-03-01T11:26:00;11.60;;;7.37;;
8871;SDS011;4472;52.092;9.820;2023-03-01T11:28:51;10.27;;;7.80;;
8871;SDS011;4472;52.092;9.820;2023-03-01T11:31:45;13.40;;;7.70;;
8871;SDS011;4472;52.092;9.820;2023-03-01T11:34:36;11.97;;;8.17;;
8871;SDS011;4472;52.092;9.820;2023-03-01T11:37:31;10.73;;;7.97;;
8871;SDS011;4472;52.092;9.820;2023-03-01T11:40:22;12.30;;;7.77;;
8871;SDS011;4472;52.092;9.820;2023-03-01T11:43:14;11.27;;;7.87;;
8871;SDS011;4472;52.092;9.820;2023-03-01T11:49:37;14.10;;;7.97;;
8871;SDS011;4472;52.092;9.820;2023-03-01T11:52:43;10.93;;;7.03;;
8871;SDS011;4472;52.092;9.820;2023-03-01T11:55:47;13.13;;;7.50;;
8871;SDS011;4472;52.092;9.820;2023-03-01T11:58:47;13.53;;;7.07;;
8871;SDS011;4472;52.092;9.820;2023-03-01T12:01:52;11.73;;;7.23;;
8871;SDS011;4472;52.092;9.820;2023-03-01T12:08:06;12.17;;;7.63;;
8871;SDS011;4472;52.092;9.820;2023-03-01T12:11:02;9.47;;;6.77;;
8871;SDS011;4472;52.092;9.820;2023-03-01T12:13:59;14.53;;;7.60;;
8871;SDS011;4472;52.092;9.820;2023-03-01T12:17:10;11.57;;;7.13;;
8871;SDS011;4472;52.092;9.820;2023-03-01T12:20:17;13.20;;;7.20;;
8871;SDS011;4472;52.092;9.820;2023-03-01T12:23:25;11.90;;;6.80;;
8871;SDS011;4472;52.092;9.820;2023-03-01T12:26:31;10.27;;;6.97;;
8871;SDS011;4472;52.092;9.820;2023-03-01T12:29:23;10.73;;;7.00;;
8871;SDS011;4472;52.092;9.820;2023-03-01T12:32:15;11.83;;;6.33;;
8871;SDS011;4472;52.092;9.820;2023-03-01T12:35:19;9.00;;;6.30;;
8871;SDS011;4472;52.092;9.820;2023-03-01T12:38:23;6.90;;;5.60;;
8871;SDS011;4472;52.092;9.820;2023-03-01T12:44:38;11.10;;;6.37;;
8871;SDS011;4472;52.092;9.820;2023-03-01T12:47:44;9.03;;;5.80;;
8871;SDS011;4472;52.092;9.820;2023-03-01T12:50:43;8.17;;;5.80;;
8871;SDS011;4472;52.092;9.820;2023-03-01T12:53:34;8.57;;;5.70;;
8871;SDS011;4472;52.092;9.820;2023-03-01T12:56:25;8.30;;;5.57;;
8871;SDS011;4472;52.092;9.820;2023-03-01T12:59:17;10.23;;;5.83;;
8871;SDS011;4472;52.092;9.820;2023-03-01T13:02:09;7.90;;;5.60;;
8871;SDS011;4472;52.092;9.820;2023-03-01T13:05:17;8.77;;;5.27;;
8871;SDS011;4472;52.092;9.820;2023-03-01T13:08:13;10.17;;;5.40;;
8871;SDS011;4472;52.092;9.820;2023-03-01T13:11:05;7.80;;;5.03;;
8871;SDS011;4472;52.092;9.820;2023-03-01T13:17:30;10.77;;;5.80;;
8871;SDS011;4472;52.092;9.820;2023-03-01T13:20:21;8.47;;;6.27;;
8871;SDS011;4472;52.092;9.820;2023-03-01T13:23:25;9.80;;;6.00;;
8871;SDS011;4472;52.092;9.820;2023-03-01T13:26:15;8.20;;;5.03;;
8871;SDS011;4472;52.092;9.820;2023-03-01T13:29:04;7.77;;;5.00;;
8871;SDS011;4472;52.092;9.820;2023-03-01T13:32:18;8.60;;;5.83;;
8871;SDS011;4472;52.092;9.820;2023-03-01T13:38:38;6.00;;;4.40;;
8871;SDS011;4472;52.092;9.820;2023-03-01T13:41:49;6.13;;;4.83;;
8871;SDS011;4472;52.092;9.820;2023-03-01T13:44:37;11.00;;;5.90;;
8871;SDS011;4472;52.092;9.820;2023-03-01T13:47:26;6.40;;;5.03;;
8871;SDS011;4472;52.092;9.820;2023-03-01T13:50:18;6.93;;;5.07;;
8871;SDS011;4472;52.092;9.820;2023-03-01T13:53:09;8.17;;;5.50;;
8871;SDS011;4472;52.092;9.820;2023-03-01T13:56:06;6.63;;;4.43;;
8871;SDS011;4472;52.092;9.820;2023-03-01T13:58:57;6.97;;;4.87;;
8871;SDS011;4472;52.092;9.820;2023-03-01T14:01:51;6.27;;;4.87;;
8871;SDS011;4472;52.092;9.820;2023-03-01T14:04:39;6.33;;;5.13;;
8871;SDS011;4472;52.092;9.820;2023-03-01T14:07:27;9.17;;;5.40;;
8871;SDS011;4472;52.092;9.820;2023-03-01T14:10:15;7.50;;;4.83;;
8871;SDS011;4472;52.092;9.820;2023-03-01T14:13:08;7.40;;;5.03;;
8871;SDS011;4472;52.092;9.820;2023-03-01T14:16:12;7.27;;;4.90;;
8871;SDS011;4472;52.092;9.820;2023-03-01T14:19:13;8.40;;;5.00;;
8871;SDS011;4472;52.092;9.820;2023-03-01T14:22:05;8.23;;;4.93;;
8871;SDS011;4472;52.092;9.820;2023-03-01T14:25:03;8.23;;;5.03;;
8871;SDS011;4472;52.092;9.820;2023-03-01T14:27:55;7.83;;;4.80;;
8871;SDS011;4472;52.092;9.820;2023-03-01T14:30:46;7.13;;;4.67;;
8871;SDS011;4472;52.092;9.820;2023-03-01T14:33:36;5.70;;;4.47;;
8871;SDS011;4472;52.092;9.820;2023-03-01T14:36:26;13.80;;;5.30;;
8871;SDS011;4472;52.092;9.820;2023-03-01T14:39:18;7.30;;;5.10;;
8871;SDS011;4472;52.092;9.820;2023-03-01T14:42:07;10.17;;;6.13;;
8871;SDS011;4472;52.092;9.820;2023-03-01T14:44:55;7.37;;;5.20;;
8871;SDS011;4472;52.092;9.820;2023-03-01T14:47:45;11.07;;;7.87;;
8871;SDS011;4472;52.092;9.820;2023-03-01T14:50:34;8.67;;;5.27;;
8871;SDS011;4472;52.092;9.820;2023-03-01T14:53:23;11.57;;;5.00;;
8871;SDS011;4472;52.092;9.820;2023-03-01T14:56:13;6.53;;;4.80;;
8871;SDS011;4472;52.092;9.820;2023-03-01T14:59:02;6.43;;;4.80;;
8871;SDS011;4472;52.092;9.820;2023-03-01T15:01:50;7.63;;;5.00;;
8871;SDS011;4472;52.092;9.820;2023-03-01T15:04:39;5.83;;;4.83;;
8871;SDS011;4472;52.092;9.820;2023-03-01T15:07:29;6.93;;;5.10;;
8871;SDS011;4472;52.092;9.820;2023-03-01T15:10:19;8.13;;;5.00;;
8871;SDS011;4472;52.092;9.820;2023-03-01T15:13:11;12.97;;;5.17;;
8871;SDS011;4472;52.092;9.820;2023-03-01T15:16:03;6.37;;;4.70;;
8871;SDS011;4472;52.092;9.820;2023-03-01T15:18:53;8.20;;;4.73;;
8871;SDS011;4472;52.092;9.820;2023-03-01T15:21:44;8.53;;;5.03;;
8871;SDS011;4472;52.092;9.820;2023-03-01T15:24:35;5.93;;;4.90;;
8871;SDS011;4472;52.092;9.820;2023-03-01T15:27:23;8.00;;;4.43;;
8871;SDS011;4472;52.092;9.820;2023-03-01T15:30:13;7.07;;;4.37;;
8871;SDS011;4472;52.092;9.820;2023-03-01T15:33:18;6.90;;;4.97;;
8871;SDS011;4472;52.092;9.820;2023-03-01T15:36:30;11.03;;;5.87;;
8871;SDS011;4472;52.092;9.820;2023-03-01T15:39:35;18.10;;;10.33;;
8871;SDS011;4472;52.092;9.820;2023-03-01T15:42:36;18.83;;;13.93;;
8871;SDS011;4472;52.092;9.820;2023-03-01T15:45:25;6.80;;;5.43;;
8871;SDS011;4472;52.092;9.820;2023-03-01T15:48:14;8.33;;;5.50;;
8871;SDS011;4472;52.092;9.820;2023-03-01T15:51:09;6.80;;;5.37;;
8871;SDS011;4472;52.092;9.820;2023-03-01T15:54:00;7.53;;;5.00;;
8871;SDS011;4472;52.092;9.820;2023-03-01T15:56:51;7.13;;;5.20;;
8871;SDS011;4472;52.092;9.820;2023-03-01T15:59:39;5.90;;;4.77;;
8871;SDS011;4472;52.092;9.820;2023-03-01T16:02:26;8.40;;;4.97;;
8871;SDS011;4472;52.092;9.820;2023-03-01T16:05:15;7.90;;;5.43;;
8871;SDS011;4472;52.092;9.820;2023-03-01T16:08:06;8.03;;;5.07;;
8871;SDS011;4472;52.092;9.820;2023-03-01T16:10:53;19.80;;;11.97;;
8871;SDS011;4472;52.092;9.820;2023-03-01T16:13:41;7.03;;;4.80;;
8871;SDS011;4472;52.092;9.820;2023-03-01T16:16:29;9.23;;;5.33;;
8871;SDS011;4472;52.092;9.820;2023-03-01T16:19:16;8.63;;;5.60;;
8871;SDS011;4472;52.092;9.820;2023-03-01T16:22:03;11.53;;;7.70;;
8871;SDS011;4472;52.092;9.820;2023-03-01T16:24:50;7.10;;;5.20;;
8871;SDS011;4472;52.092;9.820;2023-03-01T16:27:38;7.17;;;5.23;;
8871;SDS011;4472;52.092;9.820;2023-03-01T16:30:29;8.60;;;5.20;;
8871;SDS011;4472;52.092;9.820;2023-03-01T16:33:16;7.07;;;5.40;;
8871;SDS011;4472;52.092;9.820;2023-03-01T16:36:06;6.87;;;5.30;;
8871;SDS011;4472;52.092;9.820;2023-03-01T16:38:54;7.87;;;5.60;;
8871;SDS011;4472;52.092;9.820;2023-03-01T16:41:44;9.27;;;5.40;;
8871;SDS011;4472;52.092;9.820;2023-03-01T16:44:31;7.93;;;5.30;;
8871;SDS011;4472;52.092;9.820;2023-03-01T16:47:19;8.97;;;6.20;;
8871;SDS011;4472;52.092;9.820;2023-03-01T16:50:07;10.17;;;5.60;;
8871;SDS011;4472;52.092;9.820;2023-03-01T16:52:55;9.97;;;5.77;;
8871;SDS011;4472;52.092;9.820;2023-03-01T16:55:42;7.37;;;4.97;;
8871;SDS011;4472;52.092;9.820;2023-03-01T16:58:30;6.77;;;4.63;;
8871;SDS011;4472;52.092;9.820;2023-03-01T17:01:18;58.20;;;19.87;;
8871;SDS011;4472;52.092;9.820;2023-03-01T17:04:11;128.13;;;41.63;;
8871;SDS011;4472;52.092;9.820;2023-03-01T17:06:58;120.53;;;36.63;;
8871;SDS011;4472;52.092;9.820;2023-03-01T17:09:46;121.87;;;44.00;;
8871;SDS011;4472;52.092;9.820;2023-03-01T17:12:33;164.53;;;61.20;;
8871;SDS011;4472;52.092;9.820;2023-03-01T17:15:20;140.47;;;49.17;;
8871;SDS011;4472;52.092;9.820;2023-03-01T17:18:08;107.60;;;41.23;;
8871;SDS011;4472;52.092;9.820;2023-03-01T17:20:57;81.03;;;32.90;;
8871;SDS011;4472;52.092;9.820;2023-03-01T17:23:44;64.03;;;26.50;;
8871;SDS011;4472;52.092;9.820;2023-03-01T17:26:34;39.80;;;18.40;;
8871;SDS011;4472;52.092;9.820;2023-03-01T17:29:21;29.60;;;14.20;;
8871;SDS011;4472;52.092;9.820;2023-03-01T17:32:09;27.90;;;13.23;;
8871;SDS011;4472;52.092;9.820;2023-03-01T17:34:56;24.77;;;11.53;;
8871;SDS011;4472;52.092;9.820;2023-03-01T17:37:44;16.80;;;9.23;;